Decoded Metar for OITP (PARSABAD in IRAN) (IATA:N/A) | Meteo·Mobile Aviation Weather
aviador You're here:

OITP Decoded Metar

PARSABAD in IRAN
Report Time2018-08-21 05:00:00
UTC Time2018-08-21 05:40:52
Flight Rules vfr VFR
WindCalm
Visibility9999 m
Phenomena:N/A
Clouds:Few 035 Hf
Expected CloudBase > 1,600 ft AGL from Temp-Dew spread
CeilingNone
Temp20°C (ISA +5)
Dew Point16°C (78% RH)
QNH1015 hPa
Density Alt1,070 ft
Elevation251 ft
Report Wrong Elevation
Raw Report
METAR OITP 210500Z 00000KT 9999 FEW035 20/16 Q1015=

Extra information for OITP:More info

Metar Taf Metar & Taf Last 4 Metars F.Rules Stats Wind Profile Meteogram Temp Stats Airport Information Weather charts Add Link Nearby VenuesMetar ALERT Operation Metar Decoded Social comments